createdAt,value
2023-04-28T00:00:18.277Z,8.07
2023-04-28T00:05:23.138Z,7.15
2023-04-28T00:10:28.036Z,9.52
2023-04-28T00:15:31.712Z,7.63
2023-04-28T00:20:35.038Z,9.93
2023-04-28T00:25:39.992Z,8.77
2023-04-28T00:30:43.308Z,8.38
2023-04-28T00:35:46.827Z,7.63
2023-04-28T00:40:51.559Z,9.65
2023-04-28T00:45:55.200Z,8.55
2023-04-28T00:50:58.602Z,8.15
2023-04-28T00:56:04.108Z,7.63
2023-04-28T01:01:09.876Z,8.45
2023-04-28T01:06:14.080Z,7.40
2023-04-28T01:11:18.964Z,6.95
2023-04-28T01:16:45.369Z,7.80
2023-04-28T01:21:48.831Z,9.65
2023-04-28T01:26:57.763Z,7.00
2023-04-28T01:32:01.371Z,7.65
2023-04-28T01:37:04.950Z,7.20
2023-04-28T01:42:09.881Z,7.93
2023-04-28T01:47:13.592Z,7.65
2023-04-28T01:52:16.968Z,8.02
2023-04-28T01:57:22.504Z,7.80
2023-04-28T02:02:28.303Z,7.97
2023-04-28T02:07:31.842Z,6.90
2023-04-28T02:12:36.700Z,8.85
2023-04-28T02:17:40.282Z,8.70
2023-04-28T02:22:43.831Z,7.13
2023-04-28T02:27:48.610Z,7.18
2023-04-28T02:32:52.131Z,7.22
2023-04-28T02:37:55.571Z,6.38
2023-04-28T02:43:00.696Z,10.10
2023-04-28T02:48:04.762Z,7.50
2023-04-28T02:53:08.459Z,7.17
2023-04-28T02:58:13.442Z,7.40
2023-04-28T03:03:17.137Z,7.10
2023-04-28T03:08:21.379Z,8.03
2023-04-28T03:13:27.318Z,6.20
2023-04-28T03:18:31.371Z,8.67
2023-04-28T03:23:35.345Z,7.07
2023-04-28T03:28:40.544Z,8.43
2023-04-28T03:33:45.665Z,8.52
2023-04-28T03:38:49.723Z,6.00
2023-04-28T03:43:56.802Z,6.53
2023-04-28T03:49:08.524Z,6.40
2023-04-28T03:54:12.541Z,7.25
2023-04-28T03:59:18.074Z,5.97
2023-04-28T04:04:21.862Z,6.80
2023-04-28T04:09:25.911Z,7.03
2023-04-28T04:14:33.475Z,6.67
2023-04-28T04:19:37.306Z,7.97
2023-04-28T04:24:43.569Z,6.97
2023-04-28T04:29:49.189Z,6.95
2023-04-28T04:34:52.996Z,5.77
2023-04-28T04:39:57.018Z,6.30
2023-04-28T04:45:01.995Z,6.80
2023-04-28T04:50:08.360Z,5.40
2023-04-28T04:55:13.609Z,6.45
2023-04-28T05:00:21.235Z,7.90
2023-04-28T05:05:25.276Z,6.22
2023-04-28T05:10:41.625Z,6.43
2023-04-28T05:15:47.308Z,6.82
2023-04-28T05:21:03.483Z,5.90
2023-04-28T05:26:07.285Z,5.63
2023-04-28T05:31:13.375Z,6.07
2023-04-28T05:36:17.306Z,6.97
2023-04-28T05:41:22.811Z,7.13
2023-04-28T05:46:30.965Z,6.20
2023-04-28T05:51:36.279Z,7.60
2023-04-28T05:56:39.982Z,6.60
2023-04-28T06:01:46.331Z,6.05
2023-04-28T06:06:50.514Z,7.28
2023-04-28T06:11:53.954Z,6.43
2023-04-28T06:16:58.758Z,6.90
2023-04-28T06:22:02.177Z,8.20
2023-04-28T06:27:07.132Z,7.60
2023-04-28T06:32:11.806Z,7.72
2023-04-28T06:37:15.720Z,8.23
2023-04-28T06:42:20.495Z,7.60
2023-04-28T06:47:39.590Z,7.70
2023-04-28T06:52:45.715Z,9.48
2023-04-28T06:57:49.227Z,10.60
2023-04-28T07:02:54.912Z,8.75
2023-04-28T07:07:58.782Z,8.47
2023-04-28T07:13:03.011Z,7.32
2023-04-28T07:18:08.261Z,7.68
2023-04-28T07:23:11.730Z,7.55
2023-04-28T07:28:15.177Z,8.75
2023-04-28T07:33:20.162Z,9.10
2023-04-28T07:38:23.543Z,9.23
2023-04-28T07:43:27.005Z,9.23
2023-04-28T07:48:32.585Z,10.03
2023-04-28T07:53:36.485Z,8.75
2023-04-28T07:58:42.166Z,8.10
2023-04-28T08:03:48.082Z,9.75
2023-04-28T08:08:53.631Z,12.82
2023-04-28T08:14:01.294Z,9.98
2023-04-28T08:19:06.272Z,11.18
2023-04-28T08:24:10.908Z,10.85
2023-04-28T08:29:14.312Z,14.00
2023-04-28T08:34:19.131Z,13.47
2023-04-28T08:39:23.671Z,13.75
2023-04-28T08:44:27.174Z,13.03
2023-04-28T08:49:37.262Z,15.90
2023-04-28T08:54:41.805Z,11.73
2023-04-28T08:59:47.246Z,13.30
2023-04-28T09:04:52.334Z,10.98
2023-04-28T09:10:21.515Z,10.80
2023-04-28T09:15:31.846Z,12.50
2023-04-28T09:20:38.385Z,14.85
2023-04-28T09:25:41.824Z,14.52
2023-04-28T09:30:45.121Z,13.48
2023-04-28T09:35:49.948Z,15.77
2023-04-28T09:40:55.610Z,15.80
2023-04-28T09:46:00.812Z,18.42
2023-04-28T09:51:07.913Z,19.70
2023-04-28T09:56:11.947Z,17.77
2023-04-28T10:01:15.856Z,20.77
2023-04-28T10:06:20.934Z,18.70
2023-04-28T10:11:25.342Z,22.95
2023-04-28T10:16:32.742Z,22.40
2023-04-28T10:21:49.460Z,19.43
2023-04-28T10:27:05.421Z,21.15
2023-04-28T10:32:23.571Z,23.13
2023-04-28T10:37:56.686Z,23.50
2023-04-28T10:43:01.603Z,24.55
2023-04-28T10:48:06.461Z,23.05
2023-04-28T10:53:10.051Z,25.80
2023-04-28T10:58:37.721Z,25.13
2023-04-28T11:03:51.265Z,21.02
2023-04-28T11:08:56.910Z,22.85
2023-04-28T11:14:36.016Z,21.35
2023-04-28T11:19:41.766Z,20.13
2023-04-28T11:24:58.109Z,20.60
2023-04-28T11:30:02.889Z,23.75
2023-04-28T11:35:09.866Z,22.42
2023-04-28T11:40:17.645Z,19.20
2023-04-28T11:45:26.543Z,19.08
2023-04-28T11:50:37.513Z,19.57
2023-04-28T11:55:40.841Z,17.80
2023-04-28T12:00:46.180Z,14.13
2023-04-28T12:05:49.682Z,13.20
2023-04-28T12:11:12.856Z,14.93
2023-04-28T12:16:45.096Z,16.40
2023-04-28T12:22:02.122Z,13.93
2023-04-28T12:27:21.764Z,15.07
2023-04-28T12:32:40.809Z,13.37
2023-04-28T12:37:44.930Z,11.45
2023-04-28T12:42:49.132Z,11.45
2023-04-28T12:47:53.947Z,10.75
2023-04-28T12:52:57.972Z,8.55
2023-04-28T12:58:01.318Z,8.93
2023-04-28T13:03:06.545Z,10.50
2023-04-28T13:08:11.205Z,8.48
2023-04-28T13:13:14.600Z,7.00
2023-04-28T13:18:19.418Z,6.30
2023-04-28T13:23:22.855Z,6.57
2023-04-28T13:28:26.199Z,11.70
2023-04-28T13:33:31.557Z,10.82
2023-04-28T13:38:34.848Z,11.95
2023-04-28T13:43:38.161Z,10.20
2023-04-28T13:48:43.010Z,9.30
2023-04-28T13:53:46.735Z,9.40
2023-04-28T13:58:50.062Z,10.47
2023-04-28T14:03:54.906Z,12.70
2023-04-28T14:08:59.419Z,11.00
2023-04-28T14:14:02.897Z,10.23
2023-04-28T14:19:08.581Z,10.00
2023-04-28T14:24:11.989Z,12.17
2023-04-28T14:29:15.449Z,11.57
2023-04-28T14:34:20.257Z,11.33
2023-04-28T14:39:24.258Z,9.98
2023-04-28T14:44:27.561Z,12.27
2023-04-28T14:49:32.559Z,13.50
2023-04-28T14:54:36.219Z,15.27
2023-04-28T14:59:39.489Z,16.57
2023-04-28T15:04:44.702Z,17.80
2023-04-28T15:09:48.151Z,18.95
2023-04-28T15:14:53.678Z,20.57
2023-04-28T15:20:00.779Z,17.60
2023-04-28T15:25:04.213Z,20.20
2023-04-28T15:30:10.053Z,25.53
2023-04-28T15:35:14.875Z,23.02
2023-04-28T15:40:19.394Z,21.03
2023-04-28T15:45:23.486Z,24.90
2023-04-28T15:50:28.283Z,23.85
2023-04-28T15:55:31.695Z,20.75
2023-04-28T16:00:35.198Z,25.17
2023-04-28T16:05:40.225Z,27.33
2023-04-28T16:10:44.184Z,22.42
2023-04-28T16:15:49.981Z,22.70
2023-04-28T16:20:55.164Z,25.92
2023-04-28T16:25:59.016Z,21.83
2023-04-28T16:31:02.363Z,29.50
2023-04-28T16:36:08.709Z,26.50
2023-04-28T16:41:12.417Z,23.55
2023-04-28T16:46:16.250Z,27.92
2023-04-28T16:51:22.194Z,25.17
2023-04-28T16:56:25.975Z,30.77
2023-04-28T17:01:30.622Z,30.05
2023-04-28T17:06:36.704Z,31.00
2023-04-28T17:11:40.465Z,36.38
2023-04-28T17:16:44.934Z,31.33
2023-04-28T17:21:52.897Z,31.73
2023-04-28T17:26:56.420Z,32.30
2023-04-28T17:31:59.715Z,29.37
2023-04-28T17:37:04.889Z,30.27
2023-04-28T17:42:09.163Z,41.13
2023-04-28T17:47:14.107Z,33.97
2023-04-28T17:52:20.819Z,43.40
2023-04-28T17:57:24.213Z,41.22
2023-04-28T18:02:27.740Z,38.20
2023-04-28T18:07:32.700Z,37.50
2023-04-28T18:12:36.294Z,42.65
2023-04-28T18:17:39.707Z,41.83
2023-04-28T18:22:44.577Z,40.60
2023-04-28T18:27:47.904Z,41.47
2023-04-28T18:32:52.271Z,36.75
2023-04-28T18:37:57.203Z,39.55
2023-04-28T18:43:02.135Z,36.63
2023-04-28T18:48:06.057Z,36.80
2023-04-28T18:53:11.852Z,34.42
2023-04-28T18:58:15.738Z,31.47
2023-04-28T19:03:19.325Z,38.08
2023-04-28T19:08:24.490Z,43.63
2023-04-28T19:13:27.835Z,42.20
2023-04-28T19:18:32.004Z,36.75
2023-04-28T19:23:36.744Z,32.55
2023-04-28T19:28:40.142Z,36.53
2023-04-28T19:33:45.640Z,35.10
2023-04-28T19:38:51.662Z,33.92
2023-04-28T19:43:55.805Z,28.97
2023-04-28T19:48:59.275Z,27.88
2023-04-28T19:54:04.009Z,33.30
2023-04-28T19:59:07.356Z,33.15
2023-04-28T20:04:10.976Z,40.78
2023-04-28T20:09:16.695Z,44.28
2023-04-28T20:14:21.621Z,32.23
2023-04-28T20:19:25.542Z,30.88
2023-04-28T20:24:30.302Z,27.60
2023-04-28T20:29:37.147Z,30.77
2023-04-28T20:34:41.387Z,31.73
2023-04-28T20:39:47.295Z,34.40
2023-04-28T20:44:51.957Z,35.42
2023-04-28T20:49:55.339Z,39.50
2023-04-28T20:55:00.492Z,81.78
2023-04-28T21:00:04.572Z,114.60
2023-04-28T21:05:08.992Z,81.72
2023-04-28T21:10:14.196Z,91.70
2023-04-28T21:15:17.704Z,63.67
2023-04-28T21:20:21.258Z,75.73
2023-04-28T21:25:26.362Z,45.13
2023-04-28T21:30:30.129Z,20.60
2023-04-28T21:35:33.476Z,15.20
2023-04-28T21:40:38.281Z,10.27
2023-04-28T21:45:41.849Z,6.75
2023-04-28T21:50:45.515Z,5.68
2023-04-28T21:55:50.398Z,3.90
2023-04-28T22:00:54.954Z,3.40
2023-04-28T22:05:59.022Z,3.90
2023-04-28T22:11:04.176Z,4.47
2023-04-28T22:16:07.938Z,3.13
2023-04-28T22:21:13.739Z,3.10
2023-04-28T22:26:19.285Z,3.30
2023-04-28T22:31:22.764Z,4.05
2023-04-28T22:36:26.190Z,3.97
2023-04-28T22:41:31.072Z,3.97
2023-04-28T22:46:34.771Z,4.20
2023-04-28T22:51:38.199Z,5.63
2023-04-28T22:56:42.951Z,3.63
2023-04-28T23:01:46.413Z,4.03
2023-04-28T23:06:49.912Z,5.75
2023-04-28T23:11:54.854Z,4.25
2023-04-28T23:16:58.538Z,6.15
2023-04-28T23:22:01.941Z,5.90
2023-04-28T23:27:06.896Z,6.10
2023-04-28T23:32:10.382Z,6.18
2023-04-28T23:37:13.757Z,5.70
2023-04-28T23:42:21.220Z,6.35
2023-04-28T23:47:24.704Z,6.45
2023-04-28T23:52:28.074Z,6.53
2023-04-28T23:57:32.752Z,6.40
